createdAt,value
2017-07-23T00:00:07.294Z,88
2017-07-23T00:00:48.188Z,88.48
2017-07-23T00:01:29.078Z,87.71
2017-07-23T00:02:09.969Z,88.39
2017-07-23T00:02:50.855Z,88.19
2017-07-23T00:03:31.741Z,88.29
2017-07-23T00:04:12.630Z,88.29
2017-07-23T00:04:53.508Z,88.1
2017-07-23T00:05:34.404Z,88.39
2017-07-23T00:06:15.291Z,88.1
2017-07-23T00:06:56.174Z,87.9
2017-07-23T00:07:37.067Z,88.19
2017-07-23T00:08:17.952Z,88.1
2017-07-23T00:08:58.842Z,88.1
2017-07-23T00:09:39.724Z,88.1
2017-07-23T00:10:20.612Z,88.1
2017-07-23T00:11:01.501Z,88.29
2017-07-23T00:11:42.386Z,88.1
2017-07-23T00:12:23.263Z,88
2017-07-23T00:13:04.151Z,88.1
2017-07-23T00:13:45.064Z,88.1
2017-07-23T00:14:25.943Z,88
2017-07-23T00:15:06.837Z,88.29
2017-07-23T00:15:47.742Z,88.39
2017-07-23T00:16:28.631Z,88.19
2017-07-23T00:17:09.527Z,88.29
2017-07-23T00:17:50.451Z,88.48
2017-07-23T00:18:31.346Z,88.29
2017-07-23T00:19:12.234Z,88.29
2017-07-23T00:19:53.137Z,88.39
2017-07-23T00:20:34.028Z,88.48
2017-07-23T00:21:14.918Z,88.48
2017-07-23T00:21:55.815Z,88.39
2017-07-23T00:22:36.719Z,88.29
2017-07-23T00:23:17.609Z,88.29
2017-07-23T00:23:58.515Z,88.29
2017-07-23T00:24:39.401Z,88
2017-07-23T00:25:20.283Z,88.1
2017-07-23T00:26:01.226Z,88.48
2017-07-23T00:26:42.127Z,88.1
2017-07-23T00:27:23.009Z,87.81
2017-07-23T00:28:03.896Z,87.9
2017-07-23T00:28:44.775Z,87.81
2017-07-23T00:29:25.663Z,88.19
2017-07-23T00:30:06.565Z,88.39
2017-07-23T00:30:47.449Z,88.57
2017-07-23T00:31:28.335Z,88.77
2017-07-23T00:32:09.241Z,88.67
2017-07-23T00:32:50.141Z,88.67
2017-07-23T00:33:31.038Z,89.15
2017-07-23T00:34:11.924Z,88.96
2017-07-23T00:34:52.841Z,89.35
2017-07-23T00:35:33.737Z,89.25
2017-07-23T00:36:14.619Z,89.73
2017-07-23T00:36:55.506Z,89.54
2017-07-23T00:37:36.416Z,90.02
2017-07-23T00:38:17.296Z,88.96
2017-07-23T00:38:58.189Z,88.29
2017-07-23T00:39:39.086Z,88.96
2017-07-23T00:40:19.971Z,88.67
2017-07-23T00:41:00.859Z,88.1
2017-07-23T00:41:41.766Z,88
2017-07-23T00:42:22.651Z,88.1
2017-07-23T00:43:03.537Z,88.48
2017-07-23T00:43:44.435Z,87.81
2017-07-23T00:44:25.319Z,88.48
2017-07-23T00:45:06.212Z,88.48
2017-07-23T00:45:47.121Z,88.96
2017-07-23T00:46:27.988Z,88.96
2017-07-23T00:47:08.884Z,88.77
2017-07-23T00:47:49.788Z,89.35
2017-07-23T00:48:30.683Z,89.35
2017-07-23T00:49:11.601Z,89.06
2017-07-23T00:49:52.486Z,89.06
2017-07-23T00:50:33.377Z,89.15
2017-07-23T00:51:14.268Z,89.25
2017-07-23T00:51:55.157Z,89.35
2017-07-23T00:52:36.053Z,89.25
2017-07-23T00:53:16.942Z,89.06
2017-07-23T00:53:57.843Z,89.01
2017-07-23T00:54:38.736Z,89.06
2017-07-23T00:55:19.635Z,89.25
2017-07-23T00:56:00.516Z,88.92
2017-07-23T00:56:41.403Z,88.73
2017-07-23T00:57:22.288Z,88.92
2017-07-23T00:58:03.185Z,88.63
2017-07-23T00:58:44.082Z,88.44
2017-07-23T00:59:24.971Z,87.86
2017-07-23T01:00:05.871Z,87.96
2017-07-23T01:00:46.760Z,87.96
2017-07-23T01:01:27.650Z,87.67
2017-07-23T01:02:08.545Z,87.38
2017-07-23T01:02:49.432Z,87.96
2017-07-23T01:03:30.321Z,87.92
2017-07-23T01:04:11.222Z,87.38
2017-07-23T01:04:52.098Z,87.15
2017-07-23T01:05:32.997Z,87.43
2017-07-23T01:06:13.880Z,87.24
2017-07-23T01:06:54.784Z,86.95
2017-07-23T01:07:35.675Z,86.95
2017-07-23T01:08:16.557Z,86.95
2017-07-23T01:08:57.441Z,86.76
2017-07-23T01:09:38.327Z,86.95
2017-07-23T01:10:19.236Z,86.47
2017-07-23T01:11:00.130Z,86.95
2017-07-23T01:11:40.995Z,86.47
2017-07-23T01:12:21.883Z,86.57
2017-07-23T01:13:02.772Z,86.57
2017-07-23T01:13:43.672Z,86.38
2017-07-23T01:14:24.558Z,87.05
2017-07-23T01:15:05.448Z,87.05
2017-07-23T01:15:46.329Z,86.85
2017-07-23T01:16:27.217Z,86.47
2017-07-23T01:17:08.111Z,86.47
2017-07-23T01:17:48.999Z,86.95
2017-07-23T01:18:29.898Z,86.85
2017-07-23T01:19:10.792Z,86.47
2017-07-23T01:19:51.677Z,86.52
2017-07-23T01:20:32.586Z,86.9
2017-07-23T01:21:13.475Z,86.38
2017-07-23T01:21:54.404Z,87.05
2017-07-23T01:22:35.298Z,86.47
2017-07-23T01:23:16.194Z,86.47
2017-07-23T01:23:57.078Z,86.66
2017-07-23T01:24:37.972Z,86.76
2017-07-23T01:25:18.871Z,86.47
2017-07-23T01:25:59.777Z,86.57
2017-07-23T01:26:40.664Z,86.57
2017-07-23T01:27:21.561Z,86.57
2017-07-23T01:28:02.428Z,87.05
2017-07-23T01:28:43.318Z,87.05
2017-07-23T01:29:24.224Z,86.57
2017-07-23T01:30:05.111Z,86.76
2017-07-23T01:30:46.011Z,86.57
2017-07-23T01:31:26.894Z,86.85
2017-07-23T01:32:07.784Z,86.66
2017-07-23T01:32:48.676Z,86.28
2017-07-23T01:33:29.572Z,86.28
2017-07-23T01:34:10.458Z,86.47
2017-07-23T01:34:51.353Z,85.99
2017-07-23T01:35:32.248Z,86.47
2017-07-23T01:36:13.136Z,86.28
2017-07-23T01:36:54.031Z,85.99
2017-07-23T01:37:34.898Z,85.99
2017-07-23T01:38:15.783Z,86.57
2017-07-23T01:38:56.689Z,85.89
2017-07-23T01:39:37.597Z,86.38
2017-07-23T01:40:18.456Z,86.47
2017-07-23T01:40:59.346Z,86.47
2017-07-23T01:41:40.244Z,86.28
2017-07-23T01:42:21.132Z,86.38
2017-07-23T01:43:02.020Z,86.47
2017-07-23T01:43:42.912Z,86.47
2017-07-23T01:44:23.810Z,86.47
2017-07-23T01:45:04.717Z,86.28
2017-07-23T01:45:45.600Z,86.28
2017-07-23T01:46:26.487Z,86.09
2017-07-23T01:47:07.375Z,86.18
2017-07-23T01:47:48.264Z,86.38
2017-07-23T01:48:29.145Z,86.09
2017-07-23T01:49:10.019Z,86.18
2017-07-23T01:49:50.909Z,85.99
2017-07-23T01:50:31.807Z,86.38
2017-07-23T01:51:12.694Z,86.22
2017-07-23T01:51:53.581Z,86.28
2017-07-23T01:52:34.471Z,86.66
2017-07-23T01:53:15.371Z,86.95
2017-07-23T01:53:56.262Z,86.57
2017-07-23T01:54:37.147Z,86.76
2017-07-23T01:55:18.048Z,86.57
2017-07-23T01:55:58.956Z,86.85
2017-07-23T01:56:39.848Z,86.85
2017-07-23T01:57:20.732Z,86.85
2017-07-23T01:58:01.630Z,86.76
2017-07-23T01:58:42.518Z,86.09
2017-07-23T01:59:23.410Z,86.95
2017-07-23T02:00:04.312Z,86.66
2017-07-23T02:00:45.195Z,86.76
2017-07-23T02:01:26.079Z,86.66
2017-07-23T02:02:06.973Z,86.18
2017-07-23T02:02:47.868Z,86.18
2017-07-23T02:03:28.753Z,86.57
2017-07-23T02:04:09.648Z,86.38
2017-07-23T02:04:50.544Z,85.89
2017-07-23T02:05:31.440Z,86.47
2017-07-23T02:06:12.339Z,86.18
2017-07-23T02:06:53.226Z,86.85
2017-07-23T02:07:34.119Z,86.8
2017-07-23T02:08:15.041Z,86.76
2017-07-23T02:08:55.901Z,86.85
2017-07-23T02:09:36.785Z,87.43
2017-07-23T02:10:17.675Z,87.24
2017-07-23T02:10:58.578Z,87.34
2017-07-23T02:11:39.461Z,87.05
2017-07-23T02:12:20.352Z,86.85
2017-07-23T02:13:01.267Z,86.95
2017-07-23T02:13:42.145Z,86.47
2017-07-23T02:14:23.052Z,86.76
2017-07-23T02:15:03.935Z,86.95
2017-07-23T02:15:44.845Z,87.05
2017-07-23T02:16:25.734Z,86.66
2017-07-23T02:17:06.628Z,86.47
2017-07-23T02:17:47.522Z,86.76
2017-07-23T02:18:28.412Z,86.95
2017-07-23T02:19:09.302Z,87.05
2017-07-23T02:19:50.196Z,87.05
2017-07-23T02:20:31.086Z,87.15
2017-07-23T02:21:11.984Z,86.57
2017-07-23T02:21:52.883Z,86.47
2017-07-23T02:22:33.776Z,86.66
2017-07-23T02:23:14.659Z,86.57
2017-07-23T02:23:55.548Z,86.57
2017-07-23T02:24:36.439Z,87.05
2017-07-23T02:25:17.330Z,87.05
2017-07-23T02:25:58.217Z,86.47
2017-07-23T02:26:39.116Z,86.47
2017-07-23T02:27:20.008Z,86.66
2017-07-23T02:28:00.899Z,86.76
2017-07-23T02:28:41.786Z,86.76
2017-07-23T02:29:22.684Z,86.76
2017-07-23T02:30:03.576Z,86.28
2017-07-23T02:30:44.466Z,86.28
2017-07-23T02:31:25.346Z,86.09
2017-07-23T02:32:06.231Z,85.89
2017-07-23T02:32:47.125Z,86.47
2017-07-23T02:33:28.004Z,86.85
2017-07-23T02:34:08.883Z,86.95
2017-07-23T02:34:49.785Z,86.76
2017-07-23T02:35:30.685Z,86.85
2017-07-23T02:36:11.570Z,86.85
2017-07-23T02:36:52.459Z,86.85
2017-07-23T02:37:33.349Z,86.66
2017-07-23T02:38:14.247Z,86.38
2017-07-23T02:38:55.137Z,86.76
2017-07-23T02:39:36.020Z,86.76
2017-07-23T02:40:16.901Z,86.85
2017-07-23T02:40:57.791Z,86.76
2017-07-23T02:41:38.700Z,86.76
2017-07-23T02:42:19.602Z,86.28
2017-07-23T02:43:00.511Z,86.85
2017-07-23T02:43:41.397Z,86.09
2017-07-23T02:44:22.284Z,86.28
2017-07-23T02:45:03.191Z,86.66
2017-07-23T02:45:44.076Z,86.09
2017-07-23T02:46:24.963Z,86.47
2017-07-23T02:47:05.874Z,86.18
2017-07-23T02:47:46.766Z,86.28
2017-07-23T02:48:27.658Z,86.38
2017-07-23T02:49:08.544Z,86.47
2017-07-23T02:49:49.426Z,86.38
2017-07-23T02:50:30.340Z,86.66
2017-07-23T02:51:11.243Z,86.76
2017-07-23T02:51:52.123Z,86.57
2017-07-23T02:52:33.008Z,86.57
2017-07-23T02:53:13.900Z,86.47
2017-07-23T02:53:54.798Z,86.47
2017-07-23T02:54:35.716Z,86.85
2017-07-23T02:55:16.575Z,87.15
2017-07-23T02:55:57.461Z,87.05
2017-07-23T02:56:38.348Z,87.05
2017-07-23T02:57:19.248Z,86.66
2017-07-23T02:58:00.134Z,87.05
2017-07-23T02:58:41.020Z,86.38
2017-07-23T02:59:21.925Z,86.47
2017-07-23T03:00:02.817Z,86.57
2017-07-23T03:00:43.731Z,86.85
2017-07-23T03:01:24.621Z,86.99
2017-07-23T03:02:05.505Z,87.05
2017-07-23T03:02:46.387Z,87.24
2017-07-23T03:03:27.281Z,87.24
2017-07-23T03:04:08.182Z,87.24
2017-07-23T03:04:49.071Z,87.15
2017-07-23T03:05:29.959Z,87.43
2017-07-23T03:06:10.846Z,87.43
2017-07-23T03:06:51.749Z,86.95
2017-07-23T03:07:32.644Z,87.24
2017-07-23T03:08:13.534Z,87.15
2017-07-23T03:08:54.447Z,87.24
2017-07-23T03:09:35.331Z,87.53
2017-07-23T03:10:16.207Z,87.43
2017-07-23T03:10:57.099Z,87.86
2017-07-23T03:11:37.996Z,87.72
2017-07-23T03:12:18.869Z,87.67
2017-07-23T03:12:59.769Z,87.92
2017-07-23T03:13:40.666Z,88.39
2017-07-23T03:14:21.560Z,88.2
2017-07-23T03:15:02.464Z,88.87
2017-07-23T03:15:43.354Z,89.11
2017-07-23T03:16:24.233Z,88.68
2017-07-23T03:17:05.195Z,88.49
2017-07-23T03:17:46.091Z,88.3
2017-07-23T03:18:26.986Z,88.59
2017-07-23T03:19:07.871Z,87.92
2017-07-23T03:19:48.761Z,88.39
2017-07-23T03:20:29.657Z,88.2
2017-07-23T03:21:10.536Z,88.39
2017-07-23T03:21:51.438Z,88.68
2017-07-23T03:22:32.330Z,88.59
2017-07-23T03:23:13.227Z,88.87
2017-07-23T03:23:54.119Z,89.01
2017-07-23T03:24:35.014Z,88.68
2017-07-23T03:25:15.883Z,88.49
2017-07-23T03:25:56.770Z,88.87
2017-07-23T03:26:37.669Z,88.49
2017-07-23T03:27:18.555Z,88.78
2017-07-23T03:27:59.436Z,88.78
2017-07-23T03:28:40.323Z,88.49
2017-07-23T03:29:21.216Z,88.2
2017-07-23T03:30:02.104Z,88.1
2017-07-23T03:30:42.999Z,88.01
2017-07-23T03:31:23.888Z,88.49
2017-07-23T03:32:04.766Z,88.01
2017-07-23T03:32:45.644Z,88.1
2017-07-23T03:33:26.537Z,88.49
2017-07-23T03:34:07.434Z,88.3
2017-07-23T03:34:48.322Z,89.07
2017-07-23T03:35:29.213Z,88.73
2017-07-23T03:36:10.112Z,89.11
2017-07-23T03:36:50.989Z,88.78
2017-07-23T03:37:31.882Z,88.97
2017-07-23T03:38:12.773Z,88.78
2017-07-23T03:38:53.679Z,88.87
2017-07-23T03:39:34.548Z,89.45
2017-07-23T03:40:15.451Z,89.36
2017-07-23T03:40:56.335Z,89.16
2017-07-23T03:41:37.273Z,89.45
2017-07-23T03:42:18.166Z,89.07
2017-07-23T03:42:59.056Z,89.07
2017-07-23T03:43:39.953Z,89.07
2017-07-23T03:44:20.830Z,89.45
2017-07-23T03:45:01.733Z,88.68
2017-07-23T03:45:42.623Z,88.97
2017-07-23T03:46:23.518Z,88.87
2017-07-23T03:47:04.416Z,88.68
2017-07-23T03:47:45.309Z,88.68
2017-07-23T03:48:26.193Z,88.87
2017-07-23T03:49:07.091Z,88.78
2017-07-23T03:49:47.984Z,88.78
2017-07-23T03:50:28.866Z,88.59
2017-07-23T03:51:09.766Z,88.78
2017-07-23T03:51:50.656Z,89.36
2017-07-23T03:52:31.552Z,88.49
2017-07-23T03:53:12.471Z,88.68
2017-07-23T03:53:53.340Z,89.12
2017-07-23T03:54:34.223Z,88.64
2017-07-23T03:55:15.116Z,88.59
2017-07-23T03:55:56.019Z,88.49
2017-07-23T03:56:36.906Z,88.64
2017-07-23T03:57:17.818Z,88.59
2017-07-23T03:57:58.686Z,89.07
2017-07-23T03:58:39.562Z,88.64
2017-07-23T03:59:20.446Z,88.39
2017-07-23T04:00:01.354Z,88.54
2017-07-23T04:00:42.223Z,88.83
2017-07-23T04:01:23.107Z,88.78
2017-07-23T04:02:04.028Z,89.02
2017-07-23T04:02:44.916Z,88.68
2017-07-23T04:03:25.815Z,88.93
2017-07-23T04:04:06.733Z,88.83
2017-07-23T04:04:47.594Z,88.25
2017-07-23T04:05:28.495Z,88.73
2017-07-23T04:06:09.390Z,88.54
2017-07-23T04:06:50.274Z,88.06
2017-07-23T04:07:31.179Z,88.06
2017-07-23T04:08:12.070Z,87.96
2017-07-23T04:08:52.952Z,88.16
2017-07-23T04:09:33.845Z,88.25
2017-07-23T04:10:14.726Z,88.3
2017-07-23T04:10:55.611Z,88.83
2017-07-23T04:11:36.491Z,88.16
2017-07-23T04:12:17.394Z,88.16
2017-07-23T04:12:58.293Z,88.54
2017-07-23T04:13:39.153Z,88.83
2017-07-23T04:14:20.043Z,88.83
2017-07-23T04:15:00.965Z,88.73
2017-07-23T04:15:41.828Z,89.16
2017-07-23T04:16:22.767Z,88.16
2017-07-23T04:17:03.639Z,88.45
2017-07-23T04:17:44.516Z,87.87
2017-07-23T04:18:25.434Z,88.1
2017-07-23T04:19:06.308Z,88.06
2017-07-23T04:19:47.178Z,87.96
2017-07-23T04:20:28.070Z,88.54
2017-07-23T04:21:08.989Z,88.06
2017-07-23T04:21:49.865Z,88.06
2017-07-23T04:22:30.758Z,88.01
2017-07-23T04:23:11.653Z,88.39
2017-07-23T04:23:52.525Z,88.1
2017-07-23T04:24:33.400Z,88.1
2017-07-23T04:25:14.318Z,88.59
2017-07-23T04:25:55.190Z,88.59
2017-07-23T04:26:36.078Z,89.07
2017-07-23T04:27:16.996Z,88.68
2017-07-23T04:27:57.872Z,88.87
2017-07-23T04:28:38.740Z,88.59
2017-07-23T04:29:19.626Z,88.87
2017-07-23T04:30:00.555Z,88.68
2017-07-23T04:30:41.441Z,88.97
2017-07-23T04:31:22.357Z,88.78
2017-07-23T04:32:03.221Z,88.16
2017-07-23T04:32:44.101Z,88.64
2017-07-23T04:34:17.385Z,88.25
2017-07-23T04:34:58.273Z,88.25
2017-07-23T04:35:39.176Z,88.25
2017-07-23T04:36:20.044Z,87.68
2017-07-23T04:37:00.924Z,87.29
2017-07-23T04:37:41.841Z,88.06
2017-07-23T04:38:22.722Z,87.68
2017-07-23T04:39:03.599Z,87.68
2017-07-23T04:39:44.506Z,87.77
2017-07-23T04:40:25.389Z,87.58
2017-07-23T04:41:06.279Z,87.49
2017-07-23T04:41:47.173Z,87.58
2017-07-23T04:42:28.051Z,87.87
2017-07-23T04:43:08.931Z,87.68
2017-07-23T04:43:49.820Z,87.77
2017-07-23T04:44:30.710Z,87.39
2017-07-23T04:45:11.603Z,87.96
2017-07-23T04:45:52.468Z,87.92
2017-07-23T04:46:33.354Z,87.58
2017-07-23T04:47:14.241Z,87.92
2017-07-23T04:47:55.128Z,87.77
2017-07-23T04:48:35.999Z,87.77
2017-07-23T04:49:16.866Z,87.87
2017-07-23T04:49:57.749Z,87.96
2017-07-23T04:50:38.634Z,87.96
2017-07-23T04:51:19.526Z,87.68
2017-07-23T04:52:00.408Z,88.06
2017-07-23T04:52:41.313Z,87.19
2017-07-23T04:53:22.206Z,87.87
2017-07-23T04:54:03.094Z,87.58
2017-07-23T04:54:43.977Z,87.68
2017-07-23T04:55:24.877Z,87.49
2017-07-23T04:56:05.743Z,87.77
2017-07-23T04:56:46.626Z,87.87
2017-07-23T04:57:27.520Z,88.16
2017-07-23T04:58:08.408Z,87.77
2017-07-23T04:58:49.280Z,88.16
2017-07-23T04:59:30.165Z,87.29
2017-07-23T05:00:11.093Z,87.49
2017-07-23T05:00:52.008Z,87.92
2017-07-23T05:01:32.911Z,88.01
2017-07-23T05:02:13.784Z,88.01
2017-07-23T05:02:54.676Z,87.72
2017-07-23T05:03:35.575Z,87.72
2017-07-23T05:04:16.460Z,88.01
2017-07-23T05:04:57.347Z,88.2
2017-07-23T05:05:38.252Z,88.3
2017-07-23T05:06:19.153Z,88.2
2017-07-23T05:07:00.054Z,88.3
2017-07-23T05:07:40.940Z,88.01
2017-07-23T05:08:21.822Z,88.1
2017-07-23T05:09:02.714Z,88.1
2017-07-23T05:09:43.614Z,88.01
2017-07-23T05:10:24.502Z,88.01
2017-07-23T05:11:05.403Z,88.78
2017-07-23T05:11:46.283Z,89.16
2017-07-23T05:12:27.169Z,88.68
2017-07-23T05:13:08.068Z,88.78
2017-07-23T05:13:48.958Z,89.07
2017-07-23T05:14:29.835Z,88.78
2017-07-23T05:15:10.742Z,89.07
2017-07-23T05:15:51.629Z,88.97
2017-07-23T05:16:32.506Z,88.63
2017-07-23T05:17:13.395Z,88.73
2017-07-23T05:17:54.314Z,89.01
2017-07-23T05:18:35.203Z,89.88
2017-07-23T05:19:16.094Z,89.88
2017-07-23T05:19:56.980Z,89.88
2017-07-23T05:20:37.859Z,89.5
2017-07-23T05:21:18.743Z,89.69
2017-07-23T05:21:59.642Z,90.12
2017-07-23T05:22:40.531Z,89.88
2017-07-23T05:23:21.407Z,88.92
2017-07-23T05:24:02.305Z,88.92
2017-07-23T05:24:43.197Z,89.69
2017-07-23T05:25:24.076Z,89.5
2017-07-23T05:26:04.981Z,89.98
2017-07-23T05:26:45.881Z,90.17
2017-07-23T05:27:26.767Z,89.98
2017-07-23T05:28:07.645Z,89.69
2017-07-23T05:28:48.544Z,90.36
2017-07-23T05:29:29.421Z,90.45
2017-07-23T05:30:10.319Z,90.45
2017-07-23T05:30:51.220Z,90.45
2017-07-23T05:31:32.094Z,89.78
2017-07-23T05:32:12.986Z,89.88
2017-07-23T05:32:53.884Z,89.78
2017-07-23T05:33:34.765Z,90.55
2017-07-23T05:34:15.643Z,90.45
2017-07-23T05:34:56.535Z,90.45
2017-07-23T05:35:37.441Z,89.98
2017-07-23T05:36:18.328Z,90.26
2017-07-23T05:36:59.232Z,89.78
2017-07-23T05:37:40.123Z,90.17
2017-07-23T05:38:21.001Z,90.45
2017-07-23T05:39:01.912Z,90.17
2017-07-23T05:39:42.787Z,90.17
2017-07-23T05:40:23.674Z,90.17
2017-07-23T05:41:04.573Z,89.88
2017-07-23T05:41:45.470Z,90.55
2017-07-23T05:42:26.358Z,90.17
2017-07-23T05:43:07.253Z,89.69
2017-07-23T05:43:48.140Z,90.36
2017-07-23T05:44:29.035Z,90.45
2017-07-23T05:45:09.941Z,89.69
2017-07-23T05:45:50.828Z,89.98
2017-07-23T05:46:31.720Z,90.36
2017-07-23T05:47:12.616Z,89.98
2017-07-23T05:47:53.565Z,91.08
2017-07-23T05:48:34.446Z,90.89
2017-07-23T05:49:15.333Z,91.08
2017-07-23T05:49:56.226Z,90.98
2017-07-23T05:50:37.119Z,91.08
2017-07-23T05:51:18.001Z,91.56
2017-07-23T05:51:58.885Z,92.04
2017-07-23T05:52:39.792Z,92.04
2017-07-23T05:53:20.672Z,92.66
2017-07-23T05:54:01.554Z,91.85
2017-07-23T05:54:42.460Z,92.13
2017-07-23T05:55:23.353Z,92.33
2017-07-23T05:56:04.249Z,92.47
2017-07-23T05:56:45.155Z,92.38
2017-07-23T05:57:26.030Z,91.7
2017-07-23T05:58:06.929Z,93.53
2017-07-23T05:58:47.825Z,92.76
2017-07-23T05:59:28.713Z,92.85
2017-07-23T06:00:09.610Z,92.76
2017-07-23T06:00:50.509Z,92.76
2017-07-23T06:01:31.381Z,93.38
2017-07-23T06:02:12.266Z,93.38
2017-07-23T06:02:53.169Z,93.19
2017-07-23T06:03:34.047Z,93.19
2017-07-23T06:04:14.927Z,94.1
2017-07-23T06:04:55.826Z,93.87
2017-07-23T06:05:36.712Z,93.72
2017-07-23T06:06:17.596Z,93.81
2017-07-23T06:06:58.490Z,94.29
2017-07-23T06:07:39.388Z,94.49
2017-07-23T06:08:20.270Z,94.59
2017-07-23T06:09:01.164Z,94.29
2017-07-23T06:09:42.063Z,94.87
2017-07-23T06:10:24.501Z,94.59
2017-07-23T06:11:05.397Z,94.01
2017-07-23T06:11:46.284Z,94.59
2017-07-23T06:12:27.193Z,94.49
2017-07-23T06:13:08.105Z,94.29
2017-07-23T06:13:48.978Z,94.49
2017-07-23T06:14:29.869Z,94.29
2017-07-23T06:15:10.762Z,94.54
2017-07-23T06:15:51.652Z,94.63
2017-07-23T06:16:32.545Z,94.82
2017-07-23T06:17:13.442Z,94.54
2017-07-23T06:17:54.327Z,94.82
2017-07-23T06:18:35.216Z,94.2
2017-07-23T06:19:16.115Z,94.96
2017-07-23T06:19:57.002Z,94.96
2017-07-23T06:20:37.892Z,95.26
2017-07-23T06:21:18.799Z,94.73
2017-07-23T06:21:59.720Z,93.81
2017-07-23T06:22:40.616Z,94.29
2017-07-23T06:23:21.501Z,91.6
2017-07-23T06:24:02.385Z,92.71
2017-07-23T06:24:43.280Z,91.89
2017-07-23T06:25:24.173Z,91.89
2017-07-23T06:26:05.070Z,91.22
2017-07-23T06:26:45.954Z,91.7
2017-07-23T06:27:26.835Z,91.6
2017-07-23T06:28:07.733Z,92.47
2017-07-23T06:28:48.624Z,92.13
2017-07-23T06:29:29.531Z,92.71
2017-07-23T06:30:10.437Z,93.19
2017-07-23T06:30:51.325Z,93.48
2017-07-23T06:31:32.236Z,93.48
2017-07-23T06:32:13.144Z,93.29
2017-07-23T06:32:54.035Z,93.19
2017-07-23T06:33:34.944Z,93.57
2017-07-23T06:34:15.838Z,93.19
2017-07-23T06:34:56.706Z,93.29
2017-07-23T06:35:37.606Z,93.29
2017-07-23T06:36:18.492Z,93.29
2017-07-23T06:36:59.384Z,93.43
2017-07-23T06:37:40.281Z,93.09
2017-07-23T06:38:21.172Z,93.48
2017-07-23T06:39:02.059Z,93.67
2017-07-23T06:39:42.957Z,93.29
2017-07-23T06:40:23.870Z,93.48
2017-07-23T06:41:04.758Z,93.29
2017-07-23T06:41:45.656Z,93.09
2017-07-23T06:42:26.547Z,93.48
2017-07-23T06:43:07.472Z,93.19
2017-07-23T06:43:48.337Z,92.9
2017-07-23T06:44:29.241Z,92.71
2017-07-23T06:45:10.116Z,92.08
2017-07-23T06:45:51.014Z,92.32
2017-07-23T06:46:31.925Z,93
2017-07-23T06:47:12.811Z,91.6
2017-07-23T06:47:53.707Z,92.47
2017-07-23T06:48:34.602Z,92.61
2017-07-23T06:49:15.497Z,93.29
2017-07-23T06:49:56.389Z,92.8
2017-07-23T06:50:37.279Z,92.52
2017-07-23T06:51:18.176Z,92.22
2017-07-23T06:51:59.076Z,92.32
2017-07-23T06:52:39.964Z,92.38
2017-07-23T06:53:20.857Z,91.89
2017-07-23T06:54:01.753Z,91.99
2017-07-23T06:54:42.650Z,92.28
2017-07-23T06:55:23.538Z,91.6
2017-07-23T06:56:04.424Z,92.61
2017-07-23T06:56:45.324Z,92.03
2017-07-23T06:57:26.231Z,92.22
2017-07-23T06:58:07.110Z,91.55
2017-07-23T06:58:47.998Z,91.6
2017-07-23T06:59:28.892Z,91.13
2017-07-23T07:00:09.786Z,91.99
2017-07-23T07:00:50.678Z,91.03
2017-07-23T07:01:31.565Z,91.65
2017-07-23T07:02:12.450Z,92.13
2017-07-23T07:02:53.357Z,91.75
2017-07-23T07:03:34.241Z,89.92
2017-07-23T07:04:15.123Z,90.06
2017-07-23T07:04:56.009Z,90.11
2017-07-23T07:05:36.908Z,88.71
2017-07-23T07:06:17.776Z,89.83
2017-07-23T07:06:58.679Z,90.02
2017-07-23T07:07:39.573Z,89.83
2017-07-23T07:08:20.461Z,89.83
2017-07-23T07:09:01.365Z,89.78
2017-07-23T07:09:42.266Z,89.97
2017-07-23T07:10:23.143Z,90.35
2017-07-23T07:11:04.038Z,89.97
2017-07-23T07:11:44.923Z,88.96
2017-07-23T07:12:25.814Z,89.15
2017-07-23T07:13:06.710Z,88.77
2017-07-23T07:13:47.608Z,87.71
2017-07-23T07:14:28.497Z,87.81
2017-07-23T07:15:09.386Z,87.23
2017-07-23T07:15:50.298Z,87.38
2017-07-23T07:16:31.169Z,87.29
2017-07-23T07:17:12.065Z,87.19
2017-07-23T07:17:52.963Z,87.38
2017-07-23T07:18:33.857Z,87.19
2017-07-23T07:19:14.744Z,87.57
2017-07-23T07:19:55.635Z,87.71
2017-07-23T07:20:36.537Z,87.23
2017-07-23T07:21:17.438Z,87.33
2017-07-23T07:21:58.330Z,87.04
2017-07-23T07:22:39.247Z,87.81
2017-07-23T07:23:20.133Z,87.33
2017-07-23T07:24:01.020Z,87.71
2017-07-23T07:24:41.912Z,87.42
2017-07-23T07:25:22.809Z,87.52
2017-07-23T07:26:03.699Z,87.33
2017-07-23T07:26:44.596Z,87.13
2017-07-23T07:27:25.504Z,87.33
2017-07-23T07:28:06.402Z,87.13
2017-07-23T07:28:47.306Z,87.52
2017-07-23T07:29:28.189Z,87.33
2017-07-23T07:30:09.082Z,87.42
2017-07-23T07:30:49.989Z,87.9
2017-07-23T07:31:30.862Z,87.62
2017-07-23T07:32:11.752Z,88
2017-07-23T07:32:52.653Z,88.33
2017-07-23T07:33:33.542Z,88.91
2017-07-23T07:34:14.432Z,88.71
2017-07-23T07:34:55.330Z,88.71
2017-07-23T07:35:36.218Z,88.81
2017-07-23T07:36:17.108Z,89.01
2017-07-23T07:36:58.008Z,89.1
2017-07-23T07:37:38.890Z,88.33
2017-07-23T07:38:19.780Z,87.85
2017-07-23T07:39:00.682Z,87.95
2017-07-23T07:39:41.569Z,88.43
2017-07-23T07:40:22.457Z,89.01
2017-07-23T07:41:03.361Z,88.14
2017-07-23T07:41:44.242Z,88.04
2017-07-23T07:42:25.132Z,87.81
2017-07-23T07:43:06.040Z,87.71
2017-07-23T07:43:46.918Z,88.29
2017-07-23T07:44:27.807Z,87.9
2017-07-23T07:45:08.700Z,87.23
2017-07-23T07:45:49.596Z,87.9
2017-07-23T07:46:30.482Z,87.62
2017-07-23T07:47:11.378Z,87.81
2017-07-23T07:47:52.269Z,88.29
2017-07-23T07:48:33.158Z,88.96
2017-07-23T07:49:14.067Z,88.91
2017-07-23T07:49:54.944Z,88.81
2017-07-23T07:50:35.833Z,88.87
2017-07-23T07:51:16.736Z,88.39
2017-07-23T07:51:57.624Z,87.81
2017-07-23T07:52:38.520Z,87.62
2017-07-23T07:53:19.417Z,87.29
2017-07-23T07:54:00.299Z,87.67
2017-07-23T07:54:41.204Z,86.99
2017-07-23T07:55:22.147Z,87.48
2017-07-23T07:56:03.063Z,87.48
2017-07-23T07:56:43.934Z,86.99
2017-07-23T07:57:24.834Z,86.99
2017-07-23T07:58:05.724Z,86.8
2017-07-23T07:58:46.610Z,86.9
2017-07-23T07:59:27.498Z,86.9
2017-07-23T08:00:08.394Z,87.52
2017-07-23T08:00:49.277Z,87.81
2017-07-23T08:01:30.171Z,87.62
2017-07-23T08:02:11.062Z,89.06
2017-07-23T08:02:51.959Z,87.9
2017-07-23T08:03:32.841Z,89.25
2017-07-23T08:04:13.732Z,89.15
2017-07-23T08:04:54.627Z,89.2
2017-07-23T08:05:35.522Z,90.45
2017-07-23T08:06:16.419Z,90.83
2017-07-23T08:06:57.309Z,91.31
2017-07-23T08:07:38.198Z,91.22
2017-07-23T08:08:19.110Z,91.13
2017-07-23T08:08:59.991Z,91.13
2017-07-23T08:09:40.874Z,91.31
2017-07-23T08:10:21.773Z,91.55
2017-07-23T08:11:02.656Z,93.09
2017-07-23T08:11:43.555Z,92.61
2017-07-23T08:12:24.458Z,93.19
2017-07-23T08:13:05.343Z,93.38
2017-07-23T08:13:46.237Z,92.8
2017-07-23T08:14:27.137Z,92.27
2017-07-23T08:15:08.024Z,92.22
2017-07-23T08:15:48.922Z,92.37
2017-07-23T08:16:29.831Z,92.27
2017-07-23T08:17:10.717Z,93.43
2017-07-23T08:17:51.615Z,94.1
2017-07-23T08:18:32.504Z,93.24
2017-07-23T08:19:13.394Z,93.04
2017-07-23T08:19:54.291Z,93.43
2017-07-23T08:20:35.187Z,93.24
2017-07-23T08:21:16.074Z,93.28
2017-07-23T08:21:56.967Z,93.38
2017-07-23T08:22:37.860Z,93.19
2017-07-23T08:23:18.755Z,93.19
2017-07-23T08:23:59.659Z,94.24
2017-07-23T08:24:40.545Z,94.24
2017-07-23T08:25:21.452Z,94.34
2017-07-23T08:26:02.342Z,94.73
2017-07-23T08:26:43.231Z,93.96
2017-07-23T08:27:24.137Z,94.15
2017-07-23T08:28:05.030Z,94.15
2017-07-23T08:28:45.915Z,94.54
2017-07-23T08:29:26.798Z,94.63
2017-07-23T08:30:07.685Z,94.63
2017-07-23T08:30:48.589Z,94.06
2017-07-23T08:31:29.488Z,94.15
2017-07-23T08:32:10.383Z,94.24
2017-07-23T08:32:51.281Z,94.06
2017-07-23T08:33:32.179Z,94
2017-07-23T08:34:13.081Z,94.2
2017-07-23T08:34:53.979Z,94.73
2017-07-23T08:35:34.869Z,94
2017-07-23T08:36:15.760Z,94.34
2017-07-23T08:36:56.662Z,94.34
2017-07-23T08:37:37.550Z,94
2017-07-23T08:38:18.447Z,94.29
2017-07-23T08:38:59.336Z,93.52
2017-07-23T08:39:40.223Z,93.81
2017-07-23T08:40:21.129Z,94.39
2017-07-23T08:41:02.031Z,94.05
2017-07-23T08:41:42.922Z,94.29
2017-07-23T08:42:23.818Z,94.43
2017-07-23T08:43:04.713Z,94.24
2017-07-23T08:43:45.607Z,94.43
2017-07-23T08:44:26.503Z,95.01
2017-07-23T08:45:07.396Z,94.05
2017-07-23T08:45:48.286Z,94.43
2017-07-23T08:46:29.195Z,94.96
2017-07-23T08:47:10.085Z,94.43
2017-07-23T08:47:50.992Z,94.24
2017-07-23T08:48:31.887Z,94.63
2017-07-23T08:49:12.787Z,94.63